sensor_id;sensor_type;location;lat;lon;timestamp;P1;durP1;ratioP1;P2;durP2;ratioP2
13335;SDS011;6737;51.480;11.962;2022-11-20T00:00:43;14.60;;;8.83;;
13335;SDS011;6737;51.480;11.962;2022-11-20T00:03:09;13.13;;;8.23;;
13335;SDS011;6737;51.480;11.962;2022-11-20T00:05:34;14.97;;;9.63;;
13335;SDS011;6737;51.480;11.962;2022-11-20T00:08:00;14.47;;;8.83;;
13335;SDS011;6737;51.480;11.962;2022-11-20T00:10:26;15.20;;;8.20;;
13335;SDS011;6737;51.480;11.962;2022-11-20T00:12:52;13.87;;;8.40;;
13335;SDS011;6737;51.480;11.962;2022-11-20T00:15:18;14.47;;;9.03;;
13335;SDS011;6737;51.480;11.962;2022-11-20T00:17:43;14.73;;;8.67;;
13335;SDS011;6737;51.480;11.962;2022-11-20T00:20:09;13.97;;;8.90;;
13335;SDS011;6737;51.480;11.962;2022-11-20T00:22:35;13.90;;;8.67;;
13335;SDS011;6737;51.480;11.962;2022-11-20T00:25:01;13.43;;;7.93;;
13335;SDS011;6737;51.480;11.962;2022-11-20T00:27:27;14.80;;;8.70;;
13335;SDS011;6737;51.480;11.962;2022-11-20T00:29:53;14.90;;;8.83;;
13335;SDS011;6737;51.480;11.962;2022-11-20T00:32:18;13.83;;;8.73;;
13335;SDS011;6737;51.480;11.962;2022-11-20T00:34:44;13.10;;;8.60;;
13335;SDS011;6737;51.480;11.962;2022-11-20T00:37:10;13.73;;;8.73;;
13335;SDS011;6737;51.480;11.962;2022-11-20T00:39:36;13.43;;;8.40;;
13335;SDS011;6737;51.480;11.962;2022-11-20T00:42:01;12.43;;;8.53;;
13335;SDS011;6737;51.480;11.962;2022-11-20T00:44:27;13.90;;;8.43;;
13335;SDS011;6737;51.480;11.962;2022-11-20T00:46:53;15.60;;;8.60;;
13335;SDS011;6737;51.480;11.962;2022-11-20T00:49:18;14.00;;;8.83;;
13335;SDS011;6737;51.480;11.962;2022-11-20T00:51:44;13.10;;;8.30;;
13335;SDS011;6737;51.480;11.962;2022-11-20T00:54:10;12.57;;;8.27;;
13335;SDS011;6737;51.480;11.962;2022-11-20T00:56:36;15.43;;;8.93;;
13335;SDS011;6737;51.480;11.962;2022-11-20T00:59:02;12.97;;;8.43;;
13335;SDS011;6737;51.480;11.962;2022-11-20T01:01:28;13.53;;;8.10;;
13335;SDS011;6737;51.480;11.962;2022-11-20T01:03:55;13.17;;;8.67;;
13335;SDS011;6737;51.480;11.962;2022-11-20T01:06:26;13.90;;;8.47;;
13335;SDS011;6737;51.480;11.962;2022-11-20T01:08:57;13.00;;;9.00;;
13335;SDS011;6737;51.480;11.962;2022-11-20T01:11:25;15.17;;;9.90;;
13335;SDS011;6737;51.480;11.962;2022-11-20T01:13:54;15.70;;;9.27;;
13335;SDS011;6737;51.480;11.962;2022-11-20T01:16:25;13.30;;;8.67;;
13335;SDS011;6737;51.480;11.962;2022-11-20T01:19:00;14.40;;;8.63;;
13335;SDS011;6737;51.480;11.962;2022-11-20T01:21:28;12.93;;;8.77;;
13335;SDS011;6737;51.480;11.962;2022-11-20T01:23:59;14.00;;;8.30;;
13335;SDS011;6737;51.480;11.962;2022-11-20T01:26:27;14.03;;;8.83;;
13335;SDS011;6737;51.480;11.962;2022-11-20T01:28:58;13.43;;;8.53;;
13335;SDS011;6737;51.480;11.962;2022-11-20T01:31:27;13.20;;;8.03;;
13335;SDS011;6737;51.480;11.962;2022-11-20T01:33:57;14.00;;;8.80;;
13335;SDS011;6737;51.480;11.962;2022-11-20T01:36:26;13.40;;;8.70;;
13335;SDS011;6737;51.480;11.962;2022-11-20T01:38:57;15.70;;;8.57;;
13335;SDS011;6737;51.480;11.962;2022-11-20T01:41:25;14.83;;;8.90;;
13335;SDS011;6737;51.480;11.962;2022-11-20T01:44:13;14.67;;;8.87;;
13335;SDS011;6737;51.480;11.962;2022-11-20T01:46:42;14.23;;;9.27;;
13335;SDS011;6737;51.480;11.962;2022-11-20T01:52:32;15.17;;;9.07;;
13335;SDS011;6737;51.480;11.962;2022-11-20T01:55:11;12.33;;;8.40;;
13335;SDS011;6737;51.480;11.962;2022-11-20T01:57:41;13.87;;;8.63;;
13335;SDS011;6737;51.480;11.962;2022-11-20T02:00:09;14.37;;;8.70;;
13335;SDS011;6737;51.480;11.962;2022-11-20T02:02:38;15.27;;;9.13;;
13335;SDS011;6737;51.480;11.962;2022-11-20T02:08:08;13.63;;;8.40;;
13335;SDS011;6737;51.480;11.962;2022-11-20T02:10:34;14.07;;;8.70;;
13335;SDS011;6737;51.480;11.962;2022-11-20T02:13:00;12.50;;;7.93;;
13335;SDS011;6737;51.480;11.962;2022-11-20T02:15:44;15.03;;;9.03;;
13335;SDS011;6737;51.480;11.962;2022-11-20T02:18:11;13.83;;;8.30;;
13335;SDS011;6737;51.480;11.962;2022-11-20T02:20:45;13.33;;;8.43;;
13335;SDS011;6737;51.480;11.962;2022-11-20T02:23:14;13.37;;;8.53;;
13335;SDS011;6737;51.480;11.962;2022-11-20T02:25:50;14.30;;;8.60;;
13335;SDS011;6737;51.480;11.962;2022-11-20T02:28:17;13.40;;;8.30;;
13335;SDS011;6737;51.480;11.962;2022-11-20T02:30:43;13.90;;;8.50;;
13335;SDS011;6737;51.480;11.962;2022-11-20T02:33:09;14.27;;;8.37;;
13335;SDS011;6737;51.480;11.962;2022-11-20T02:38:01;14.73;;;8.07;;
13335;SDS011;6737;51.480;11.962;2022-11-20T02:40:28;14.23;;;9.00;;
13335;SDS011;6737;51.480;11.962;2022-11-20T02:42:54;14.57;;;8.63;;
13335;SDS011;6737;51.480;11.962;2022-11-20T02:45:21;14.83;;;8.83;;
13335;SDS011;6737;51.480;11.962;2022-11-20T02:47:48;16.77;;;8.37;;
13335;SDS011;6737;51.480;11.962;2022-11-20T02:50:14;15.50;;;8.83;;
13335;SDS011;6737;51.480;11.962;2022-11-20T02:52:41;15.40;;;8.90;;
13335;SDS011;6737;51.480;11.962;2022-11-20T02:55:07;13.33;;;8.27;;
13335;SDS011;6737;51.480;11.962;2022-11-20T02:57:32;14.70;;;9.30;;
13335;SDS011;6737;51.480;11.962;2022-11-20T02:59:58;13.97;;;8.27;;
13335;SDS011;6737;51.480;11.962;2022-11-20T03:02:24;14.57;;;8.97;;
13335;SDS011;6737;51.480;11.962;2022-11-20T03:04:49;14.60;;;9.23;;
13335;SDS011;6737;51.480;11.962;2022-11-20T03:07:15;13.40;;;7.83;;
13335;SDS011;6737;51.480;11.962;2022-11-20T03:09:41;14.37;;;8.83;;
13335;SDS011;6737;51.480;11.962;2022-11-20T03:12:07;14.43;;;9.03;;
13335;SDS011;6737;51.480;11.962;2022-11-20T03:14:32;15.07;;;9.30;;
13335;SDS011;6737;51.480;11.962;2022-11-20T03:16:59;14.10;;;8.90;;
13335;SDS011;6737;51.480;11.962;2022-11-20T03:19:25;12.87;;;8.10;;
13335;SDS011;6737;51.480;11.962;2022-11-20T03:21:50;16.77;;;9.20;;
13335;SDS011;6737;51.480;11.962;2022-11-20T03:24:16;15.93;;;8.80;;
13335;SDS011;6737;51.480;11.962;2022-11-20T03:26:42;15.07;;;8.80;;
13335;SDS011;6737;51.480;11.962;2022-11-20T03:29:08;15.77;;;9.33;;
13335;SDS011;6737;51.480;11.962;2022-11-20T03:31:37;14.13;;;8.73;;
13335;SDS011;6737;51.480;11.962;2022-11-20T03:34:07;14.57;;;9.20;;
13335;SDS011;6737;51.480;11.962;2022-11-20T03:36:36;15.03;;;9.03;;
13335;SDS011;6737;51.480;11.962;2022-11-20T03:39:03;14.63;;;9.00;;
13335;SDS011;6737;51.480;11.962;2022-11-20T03:41:29;14.63;;;9.17;;
13335;SDS011;6737;51.480;11.962;2022-11-20T03:43:59;16.60;;;9.33;;
13335;SDS011;6737;51.480;11.962;2022-11-20T03:46:27;15.03;;;9.00;;
13335;SDS011;6737;51.480;11.962;2022-11-20T03:48:54;13.00;;;8.63;;
13335;SDS011;6737;51.480;11.962;2022-11-20T03:51:23;14.50;;;9.60;;
13335;SDS011;6737;51.480;11.962;2022-11-20T03:53:52;16.97;;;9.57;;
13335;SDS011;6737;51.480;11.962;2022-11-20T03:56:20;14.90;;;9.30;;
13335;SDS011;6737;51.480;11.962;2022-11-20T03:58:49;15.30;;;9.20;;
13335;SDS011;6737;51.480;11.962;2022-11-20T04:01:19;14.60;;;8.53;;
13335;SDS011;6737;51.480;11.962;2022-11-20T04:03:47;13.77;;;8.87;;
13335;SDS011;6737;51.480;11.962;2022-11-20T04:06:15;14.17;;;9.03;;
13335;SDS011;6737;51.480;11.962;2022-11-20T04:08:43;18.13;;;9.27;;
13335;SDS011;6737;51.480;11.962;2022-11-20T04:11:12;14.33;;;8.80;;
13335;SDS011;6737;51.480;11.962;2022-11-20T04:13:46;14.50;;;8.70;;
13335;SDS011;6737;51.480;11.962;2022-11-20T04:16:13;16.70;;;8.53;;
13335;SDS011;6737;51.480;11.962;2022-11-20T04:18:39;15.90;;;9.37;;
13335;SDS011;6737;51.480;11.962;2022-11-20T04:21:05;18.43;;;10.10;;
13335;SDS011;6737;51.480;11.962;2022-11-20T04:23:32;16.83;;;9.20;;
13335;SDS011;6737;51.480;11.962;2022-11-20T04:26:02;15.03;;;9.67;;
13335;SDS011;6737;51.480;11.962;2022-11-20T04:28:30;16.13;;;9.30;;
13335;SDS011;6737;51.480;11.962;2022-11-20T04:31:02;16.63;;;9.17;;
13335;SDS011;6737;51.480;11.962;2022-11-20T04:33:28;15.47;;;9.10;;
13335;SDS011;6737;51.480;11.962;2022-11-20T04:35:54;15.83;;;9.00;;
13335;SDS011;6737;51.480;11.962;2022-11-20T04:38:20;15.53;;;9.57;;
13335;SDS011;6737;51.480;11.962;2022-11-20T04:40:45;16.17;;;9.50;;
13335;SDS011;6737;51.480;11.962;2022-11-20T04:43:11;16.37;;;9.20;;
13335;SDS011;6737;51.480;11.962;2022-11-20T04:45:37;17.10;;;9.77;;
13335;SDS011;6737;51.480;11.962;2022-11-20T04:48:03;16.27;;;9.87;;
13335;SDS011;6737;51.480;11.962;2022-11-20T04:50:29;16.77;;;9.23;;
13335;SDS011;6737;51.480;11.962;2022-11-20T04:52:54;15.43;;;9.53;;
13335;SDS011;6737;51.480;11.962;2022-11-20T04:55:20;16.40;;;10.10;;
13335;SDS011;6737;51.480;11.962;2022-11-20T04:57:49;16.43;;;9.53;;
13335;SDS011;6737;51.480;11.962;2022-11-20T05:00:16;17.73;;;10.37;;
13335;SDS011;6737;51.480;11.962;2022-11-20T05:02:42;15.13;;;9.70;;
13335;SDS011;6737;51.480;11.962;2022-11-20T05:05:08;15.70;;;9.67;;
13335;SDS011;6737;51.480;11.962;2022-11-20T05:07:33;18.37;;;10.40;;
13335;SDS011;6737;51.480;11.962;2022-11-20T05:09:59;17.13;;;9.93;;
13335;SDS011;6737;51.480;11.962;2022-11-20T05:12:25;15.63;;;9.57;;
13335;SDS011;6737;51.480;11.962;2022-11-20T05:14:50;16.30;;;9.73;;
13335;SDS011;6737;51.480;11.962;2022-11-20T05:17:16;15.67;;;9.80;;
13335;SDS011;6737;51.480;11.962;2022-11-20T05:19:42;16.00;;;9.90;;
13335;SDS011;6737;51.480;11.962;2022-11-20T05:22:08;18.43;;;10.53;;
13335;SDS011;6737;51.480;11.962;2022-11-20T05:24:33;18.63;;;9.87;;
13335;SDS011;6737;51.480;11.962;2022-11-20T05:26:59;18.40;;;10.47;;
13335;SDS011;6737;51.480;11.962;2022-11-20T05:29:25;16.57;;;10.07;;
13335;SDS011;6737;51.480;11.962;2022-11-20T05:31:51;17.10;;;10.40;;
13335;SDS011;6737;51.480;11.962;2022-11-20T05:34:17;16.77;;;10.57;;
13335;SDS011;6737;51.480;11.962;2022-11-20T05:36:42;18.20;;;10.27;;
13335;SDS011;6737;51.480;11.962;2022-11-20T05:39:08;16.80;;;10.47;;
13335;SDS011;6737;51.480;11.962;2022-11-20T05:41:35;16.43;;;10.20;;
13335;SDS011;6737;51.480;11.962;2022-11-20T05:44:00;17.57;;;10.03;;
13335;SDS011;6737;51.480;11.962;2022-11-20T05:46:26;17.43;;;10.20;;
13335;SDS011;6737;51.480;11.962;2022-11-20T05:48:52;17.43;;;10.33;;
13335;SDS011;6737;51.480;11.962;2022-11-20T05:51:18;17.70;;;10.23;;
13335;SDS011;6737;51.480;11.962;2022-11-20T05:53:44;18.37;;;10.60;;
13335;SDS011;6737;51.480;11.962;2022-11-20T05:56:11;16.83;;;9.67;;
13335;SDS011;6737;51.480;11.962;2022-11-20T05:58:39;17.00;;;10.20;;
13335;SDS011;6737;51.480;11.962;2022-11-20T06:03:44;17.93;;;10.67;;
13335;SDS011;6737;51.480;11.962;2022-11-20T06:06:13;20.50;;;11.07;;
13335;SDS011;6737;51.480;11.962;2022-11-20T06:08:39;18.23;;;10.60;;
13335;SDS011;6737;51.480;11.962;2022-11-20T06:11:06;17.57;;;10.87;;
13335;SDS011;6737;51.480;11.962;2022-11-20T06:13:34;19.33;;;10.87;;
13335;SDS011;6737;51.480;11.962;2022-11-20T06:16:01;17.27;;;10.90;;
13335;SDS011;6737;51.480;11.962;2022-11-20T06:18:27;17.57;;;10.77;;
13335;SDS011;6737;51.480;11.962;2022-11-20T06:21:27;19.67;;;11.50;;
13335;SDS011;6737;51.480;11.962;2022-11-20T06:23:47;20.47;;;11.10;;
13335;SDS011;6737;51.480;11.962;2022-11-20T06:26:15;19.37;;;10.97;;
13335;SDS011;6737;51.480;11.962;2022-11-20T06:29:01;19.73;;;11.77;;
13335;SDS011;6737;51.480;11.962;2022-11-20T06:31:27;18.30;;;11.53;;
13335;SDS011;6737;51.480;11.962;2022-11-20T06:33:55;19.03;;;11.13;;
13335;SDS011;6737;51.480;11.962;2022-11-20T06:36:21;20.77;;;12.27;;
13335;SDS011;6737;51.480;11.962;2022-11-20T06:38:47;20.27;;;11.73;;
13335;SDS011;6737;51.480;11.962;2022-11-20T06:41:15;19.60;;;12.07;;
13335;SDS011;6737;51.480;11.962;2022-11-20T06:43:43;22.40;;;12.83;;
13335;SDS011;6737;51.480;11.962;2022-11-20T06:46:09;21.03;;;11.77;;
13335;SDS011;6737;51.480;11.962;2022-11-20T06:48:36;20.13;;;12.33;;
13335;SDS011;6737;51.480;11.962;2022-11-20T06:51:03;22.57;;;12.60;;
13335;SDS011;6737;51.480;11.962;2022-11-20T06:53:29;22.50;;;12.27;;
13335;SDS011;6737;51.480;11.962;2022-11-20T06:55:56;19.93;;;12.23;;
13335;SDS011;6737;51.480;11.962;2022-11-20T06:58:29;24.33;;;12.73;;
13335;SDS011;6737;51.480;11.962;2022-11-20T07:00:59;22.13;;;12.47;;
13335;SDS011;6737;51.480;11.962;2022-11-20T07:03:26;22.17;;;12.50;;
13335;SDS011;6737;51.480;11.962;2022-11-20T07:05:54;19.60;;;11.80;;
13335;SDS011;6737;51.480;11.962;2022-11-20T07:08:21;20.03;;;12.07;;
13335;SDS011;6737;51.480;11.962;2022-11-20T07:10:47;22.07;;;12.23;;
13335;SDS011;6737;51.480;11.962;2022-11-20T07:13:13;19.43;;;11.50;;
13335;SDS011;6737;51.480;11.962;2022-11-20T07:15:39;22.67;;;11.83;;
13335;SDS011;6737;51.480;11.962;2022-11-20T07:18:05;16.90;;;10.63;;
13335;SDS011;6737;51.480;11.962;2022-11-20T07:20:31;20.50;;;12.27;;
13335;SDS011;6737;51.480;11.962;2022-11-20T07:22:57;23.73;;;12.27;;
13335;SDS011;6737;51.480;11.962;2022-11-20T07:25:24;18.13;;;11.53;;
13335;SDS011;6737;51.480;11.962;2022-11-20T07:27:50;20.97;;;11.47;;
13335;SDS011;6737;51.480;11.962;2022-11-20T07:30:16;20.27;;;11.63;;
13335;SDS011;6737;51.480;11.962;2022-11-20T07:32:45;18.70;;;11.67;;
13335;SDS011;6737;51.480;11.962;2022-11-20T07:35:12;20.93;;;11.97;;
13335;SDS011;6737;51.480;11.962;2022-11-20T07:37:38;19.90;;;11.57;;
13335;SDS011;6737;51.480;11.962;2022-11-20T07:40:04;19.03;;;11.00;;
13335;SDS011;6737;51.480;11.962;2022-11-20T07:42:30;18.70;;;11.13;;
13335;SDS011;6737;51.480;11.962;2022-11-20T07:44:56;20.63;;;11.77;;
13335;SDS011;6737;51.480;11.962;2022-11-20T07:47:22;21.77;;;12.00;;
13335;SDS011;6737;51.480;11.962;2022-11-20T07:49:47;22.43;;;11.77;;
13335;SDS011;6737;51.480;11.962;2022-11-20T07:52:13;21.10;;;11.60;;
13335;SDS011;6737;51.480;11.962;2022-11-20T07:54:39;19.97;;;11.17;;
13335;SDS011;6737;51.480;11.962;2022-11-20T07:57:04;18.53;;;10.73;;
13335;SDS011;6737;51.480;11.962;2022-11-20T07:59:30;20.23;;;12.07;;
13335;SDS011;6737;51.480;11.962;2022-11-20T08:01:56;18.00;;;11.07;;
13335;SDS011;6737;51.480;11.962;2022-11-20T08:04:22;18.90;;;11.50;;
13335;SDS011;6737;51.480;11.962;2022-11-20T08:06:48;19.57;;;11.37;;
13335;SDS011;6737;51.480;11.962;2022-11-20T08:09:14;19.73;;;11.67;;
13335;SDS011;6737;51.480;11.962;2022-11-20T08:11:40;19.20;;;11.70;;
13335;SDS011;6737;51.480;11.962;2022-11-20T08:14:24;20.67;;;11.87;;
13335;SDS011;6737;51.480;11.962;2022-11-20T08:16:50;19.83;;;11.67;;
13335;SDS011;6737;51.480;11.962;2022-11-20T08:19:16;19.07;;;11.77;;
13335;SDS011;6737;51.480;11.962;2022-11-20T08:21:43;20.47;;;12.57;;
13335;SDS011;6737;51.480;11.962;2022-11-20T08:24:10;20.90;;;12.33;;
13335;SDS011;6737;51.480;11.962;2022-11-20T08:26:36;20.53;;;12.10;;
13335;SDS011;6737;51.480;11.962;2022-11-20T08:29:03;21.37;;;11.83;;
13335;SDS011;6737;51.480;11.962;2022-11-20T08:31:29;19.30;;;11.43;;
13335;SDS011;6737;51.480;11.962;2022-11-20T08:33:55;20.70;;;11.80;;
13335;SDS011;6737;51.480;11.962;2022-11-20T08:36:22;21.53;;;12.10;;
13335;SDS011;6737;51.480;11.962;2022-11-20T08:38:48;20.17;;;11.87;;
13335;SDS011;6737;51.480;11.962;2022-11-20T08:41:15;20.33;;;12.10;;
13335;SDS011;6737;51.480;11.962;2022-11-20T08:44:14;22.67;;;12.53;;
13335;SDS011;6737;51.480;11.962;2022-11-20T08:46:40;24.30;;;13.03;;
13335;SDS011;6737;51.480;11.962;2022-11-20T08:49:09;22.03;;;12.57;;
13335;SDS011;6737;51.480;11.962;2022-11-20T08:51:37;21.87;;;12.63;;
13335;SDS011;6737;51.480;11.962;2022-11-20T08:54:03;21.73;;;11.97;;
13335;SDS011;6737;51.480;11.962;2022-11-20T08:56:30;19.70;;;11.10;;
13335;SDS011;6737;51.480;11.962;2022-11-20T08:58:56;23.03;;;12.00;;
13335;SDS011;6737;51.480;11.962;2022-11-20T09:01:22;22.37;;;12.43;;
13335;SDS011;6737;51.480;11.962;2022-11-20T09:03:48;21.77;;;11.90;;
13335;SDS011;6737;51.480;11.962;2022-11-20T09:06:14;25.00;;;12.53;;
13335;SDS011;6737;51.480;11.962;2022-11-20T09:08:40;24.20;;;12.33;;
13335;SDS011;6737;51.480;11.962;2022-11-20T09:11:06;22.80;;;12.70;;
13335;SDS011;6737;51.480;11.962;2022-11-20T09:13:33;26.13;;;13.23;;
13335;SDS011;6737;51.480;11.962;2022-11-20T09:16:04;24.73;;;12.57;;
13335;SDS011;6737;51.480;11.962;2022-11-20T09:18:32;22.30;;;11.90;;
13335;SDS011;6737;51.480;11.962;2022-11-20T09:21:02;22.60;;;12.87;;
13335;SDS011;6737;51.480;11.962;2022-11-20T09:23:33;22.43;;;12.00;;
13335;SDS011;6737;51.480;11.962;2022-11-20T09:26:18;23.53;;;12.50;;
13335;SDS011;6737;51.480;11.962;2022-11-20T09:28:44;27.07;;;12.40;;
13335;SDS011;6737;51.480;11.962;2022-11-20T09:31:23;22.63;;;12.00;;
13335;SDS011;6737;51.480;11.962;2022-11-20T09:33:51;21.27;;;11.77;;
13335;SDS011;6737;51.480;11.962;2022-11-20T09:36:17;21.23;;;11.43;;
13335;SDS011;6737;51.480;11.962;2022-11-20T09:38:44;24.10;;;11.90;;
13335;SDS011;6737;51.480;11.962;2022-11-20T09:46:44;22.33;;;11.90;;
13335;SDS011;6737;51.480;11.962;2022-11-20T09:49:32;21.00;;;11.40;;
13335;SDS011;6737;51.480;11.962;2022-11-20T09:52:41;23.80;;;12.53;;
13335;SDS011;6737;51.480;11.962;2022-11-20T09:55:11;26.03;;;12.33;;
13335;SDS011;6737;51.480;11.962;2022-11-20T09:57:40;20.87;;;11.77;;
13335;SDS011;6737;51.480;11.962;2022-11-20T10:00:10;22.40;;;11.27;;
13335;SDS011;6737;51.480;11.962;2022-11-20T10:13:18;19.43;;;11.10;;
13335;SDS011;6737;51.480;11.962;2022-11-20T10:18:43;20.50;;;10.73;;
13335;SDS011;6737;51.480;11.962;2022-11-20T10:21:29;19.67;;;11.03;;
13335;SDS011;6737;51.480;11.962;2022-11-20T10:29:46;18.60;;;9.80;;
13335;SDS011;6737;51.480;11.962;2022-11-20T10:32:18;18.27;;;10.10;;
13335;SDS011;6737;51.480;11.962;2022-11-20T10:34:59;18.27;;;9.83;;
13335;SDS011;6737;51.480;11.962;2022-11-20T10:37:30;16.03;;;9.80;;
13335;SDS011;6737;51.480;11.962;2022-11-20T10:42:56;22.63;;;11.77;;
13335;SDS011;6737;51.480;11.962;2022-11-20T10:48:26;21.03;;;11.53;;
13335;SDS011;6737;51.480;11.962;2022-11-20T10:50:57;17.87;;;10.20;;
13335;SDS011;6737;51.480;11.962;2022-11-20T10:56:40;30.23;;;13.17;;
13335;SDS011;6737;51.480;11.962;2022-11-20T11:01:49;19.80;;;11.10;;
13335;SDS011;6737;51.480;11.962;2022-11-20T11:04:20;19.03;;;10.30;;
13335;SDS011;6737;51.480;11.962;2022-11-20T11:07:44;19.13;;;10.70;;
13335;SDS011;6737;51.480;11.962;2022-11-20T11:10:00;18.97;;;10.67;;
13335;SDS011;6737;51.480;11.962;2022-11-20T11:12:27;18.53;;;10.53;;
13335;SDS011;6737;51.480;11.962;2022-11-20T11:14:55;19.50;;;10.40;;
13335;SDS011;6737;51.480;11.962;2022-11-20T11:19:59;22.90;;;11.53;;
13335;SDS011;6737;51.480;11.962;2022-11-20T11:22:29;23.73;;;12.70;;
13335;SDS011;6737;51.480;11.962;2022-11-20T11:24:56;19.73;;;11.00;;
13335;SDS011;6737;51.480;11.962;2022-11-20T11:27:22;21.10;;;11.43;;
13335;SDS011;6737;51.480;11.962;2022-11-20T11:29:48;20.27;;;11.00;;
13335;SDS011;6737;51.480;11.962;2022-11-20T11:34:40;18.40;;;10.63;;
13335;SDS011;6737;51.480;11.962;2022-11-20T11:37:14;26.80;;;13.23;;
13335;SDS011;6737;51.480;11.962;2022-11-20T11:39:44;19.60;;;11.30;;
13335;SDS011;6737;51.480;11.962;2022-11-20T11:42:13;17.00;;;9.77;;
13335;SDS011;6737;51.480;11.962;2022-11-20T11:44:46;17.50;;;9.73;;
13335;SDS011;6737;51.480;11.962;2022-11-20T11:47:43;17.37;;;9.90;;
13335;SDS011;6737;51.480;11.962;2022-11-20T12:00:56;16.10;;;9.97;;
13335;SDS011;6737;51.480;11.962;2022-11-20T12:03:35;16.13;;;9.43;;
13335;SDS011;6737;51.480;11.962;2022-11-20T12:06:05;18.33;;;10.67;;
13335;SDS011;6737;51.480;11.962;2022-11-20T12:14:37;16.07;;;9.77;;
13335;SDS011;6737;51.480;11.962;2022-11-20T12:17:13;16.00;;;10.67;;
13335;SDS011;6737;51.480;11.962;2022-11-20T12:19:39;14.77;;;9.40;;
13335;SDS011;6737;51.480;11.962;2022-11-20T12:30:23;23.83;;;13.23;;
13335;SDS011;6737;51.480;11.962;2022-11-20T12:50:58;21.13;;;11.37;;
13335;SDS011;6737;51.480;11.962;2022-11-20T13:01:50;15.83;;;9.03;;
13335;SDS011;6737;51.480;11.962;2022-11-20T13:07:05;17.17;;;9.97;;
13335;SDS011;6737;51.480;11.962;2022-11-20T13:09:34;16.40;;;9.10;;
13335;SDS011;6737;51.480;11.962;2022-11-20T13:12:08;15.10;;;9.87;;
13335;SDS011;6737;51.480;11.962;2022-11-20T13:19:59;16.23;;;8.97;;
13335;SDS011;6737;51.480;11.962;2022-11-20T13:22:42;12.33;;;7.80;;
13335;SDS011;6737;51.480;11.962;2022-11-20T13:25:23;13.97;;;8.13;;
13335;SDS011;6737;51.480;11.962;2022-11-20T13:27:51;14.23;;;7.60;;
13335;SDS011;6737;51.480;11.962;2022-11-20T13:30:18;11.80;;;7.50;;
13335;SDS011;6737;51.480;11.962;2022-11-20T13:32:58;17.20;;;8.73;;
13335;SDS011;6737;51.480;11.962;2022-11-20T13:35:55;13.87;;;8.47;;
13335;SDS011;6737;51.480;11.962;2022-11-20T13:38:23;14.33;;;7.70;;
13335;SDS011;6737;51.480;11.962;2022-11-20T13:40:59;13.73;;;8.40;;
13335;SDS011;6737;51.480;11.962;2022-11-20T13:43:49;11.70;;;7.30;;
13335;SDS011;6737;51.480;11.962;2022-11-20T13:46:15;12.87;;;7.60;;
13335;SDS011;6737;51.480;11.962;2022-11-20T13:48:44;13.63;;;7.57;;
13335;SDS011;6737;51.480;11.962;2022-11-20T14:01:56;10.50;;;7.10;;
13335;SDS011;6737;51.480;11.962;2022-11-20T14:04:34;13.27;;;7.60;;
13335;SDS011;6737;51.480;11.962;2022-11-20T14:07:08;12.13;;;7.23;;
13335;SDS011;6737;51.480;11.962;2022-11-20T14:09:34;12.23;;;7.37;;
13335;SDS011;6737;51.480;11.962;2022-11-20T14:12:01;14.17;;;7.73;;
13335;SDS011;6737;51.480;11.962;2022-11-20T14:14:29;12.27;;;6.90;;
13335;SDS011;6737;51.480;11.962;2022-11-20T14:17:18;11.57;;;7.17;;
13335;SDS011;6737;51.480;11.962;2022-11-20T14:19:46;13.43;;;7.63;;
13335;SDS011;6737;51.480;11.962;2022-11-20T14:24:47;11.73;;;7.50;;
13335;SDS011;6737;51.480;11.962;2022-11-20T14:27:25;11.57;;;7.23;;
13335;SDS011;6737;51.480;11.962;2022-11-20T14:29:51;11.43;;;7.23;;
13335;SDS011;6737;51.480;11.962;2022-11-20T14:32:18;11.50;;;7.10;;
13335;SDS011;6737;51.480;11.962;2022-11-20T14:34:47;11.67;;;7.63;;
13335;SDS011;6737;51.480;11.962;2022-11-20T14:37:19;12.23;;;7.30;;
13335;SDS011;6737;51.480;11.962;2022-11-20T14:39:52;11.93;;;7.27;;
13335;SDS011;6737;51.480;11.962;2022-11-20T14:42:22;12.90;;;8.10;;
13335;SDS011;6737;51.480;11.962;2022-11-20T14:44:49;13.00;;;8.10;;
13335;SDS011;6737;51.480;11.962;2022-11-20T14:47:18;13.50;;;8.13;;
13335;SDS011;6737;51.480;11.962;2022-11-20T14:49:50;11.63;;;7.50;;
13335;SDS011;6737;51.480;11.962;2022-11-20T14:52:19;12.33;;;7.77;;
13335;SDS011;6737;51.480;11.962;2022-11-20T14:54:50;11.70;;;7.43;;
13335;SDS011;6737;51.480;11.962;2022-11-20T15:02:58;12.10;;;7.43;;
13335;SDS011;6737;51.480;11.962;2022-11-20T15:05:24;12.77;;;7.60;;
13335;SDS011;6737;51.480;11.962;2022-11-20T15:08:10;12.17;;;7.47;;
13335;SDS011;6737;51.480;11.962;2022-11-20T15:10:37;13.20;;;7.73;;
13335;SDS011;6737;51.480;11.962;2022-11-20T15:13:05;13.67;;;7.47;;
13335;SDS011;6737;51.480;11.962;2022-11-20T15:18:14;13.23;;;7.70;;
13335;SDS011;6737;51.480;11.962;2022-11-20T15:20:43;14.27;;;7.80;;
13335;SDS011;6737;51.480;11.962;2022-11-20T15:23:13;11.97;;;7.57;;
13335;SDS011;6737;51.480;11.962;2022-11-20T15:25:41;14.60;;;8.30;;
13335;SDS011;6737;51.480;11.962;2022-11-20T15:28:15;12.53;;;7.67;;
13335;SDS011;6737;51.480;11.962;2022-11-20T15:30:44;13.77;;;8.27;;
13335;SDS011;6737;51.480;11.962;2022-11-20T15:33:10;17.23;;;8.90;;
13335;SDS011;6737;51.480;11.962;2022-11-20T15:35:37;14.37;;;8.80;;
13335;SDS011;6737;51.480;11.962;2022-11-20T15:38:03;16.07;;;9.83;;
13335;SDS011;6737;51.480;11.962;2022-11-20T15:40:29;15.27;;;9.30;;
13335;SDS011;6737;51.480;11.962;2022-11-20T15:42:56;16.33;;;10.30;;
13335;SDS011;6737;51.480;11.962;2022-11-20T15:45:28;19.23;;;11.17;;
13335;SDS011;6737;51.480;11.962;2022-11-20T15:47:58;15.83;;;9.40;;
13335;SDS011;6737;51.480;11.962;2022-11-20T15:50:25;14.97;;;9.37;;
13335;SDS011;6737;51.480;11.962;2022-11-20T15:52:58;14.30;;;8.20;;
13335;SDS011;6737;51.480;11.962;2022-11-20T15:55:24;17.80;;;10.00;;
13335;SDS011;6737;51.480;11.962;2022-11-20T15:57:50;16.20;;;9.47;;
13335;SDS011;6737;51.480;11.962;2022-11-20T16:00:16;13.90;;;8.57;;
13335;SDS011;6737;51.480;11.962;2022-11-20T16:02:42;16.00;;;8.97;;
13335;SDS011;6737;51.480;11.962;2022-11-20T16:05:10;13.13;;;8.47;;
13335;SDS011;6737;51.480;11.962;2022-11-20T16:07:37;14.10;;;8.73;;
13335;SDS011;6737;51.480;11.962;2022-11-20T16:10:03;15.27;;;8.90;;
13335;SDS011;6737;51.480;11.962;2022-11-20T16:12:29;14.73;;;8.83;;
13335;SDS011;6737;51.480;11.962;2022-11-20T16:15:21;15.30;;;10.07;;
13335;SDS011;6737;51.480;11.962;2022-11-20T16:18:07;15.33;;;10.43;;
13335;SDS011;6737;51.480;11.962;2022-11-20T16:20:33;16.83;;;10.33;;
13335;SDS011;6737;51.480;11.962;2022-11-20T16:22:59;16.43;;;10.70;;
13335;SDS011;6737;51.480;11.962;2022-11-20T16:25:26;15.67;;;9.90;;
13335;SDS011;6737;51.480;11.962;2022-11-20T16:27:52;16.27;;;9.63;;
13335;SDS011;6737;51.480;11.962;2022-11-20T16:30:18;16.77;;;10.30;;
13335;SDS011;6737;51.480;11.962;2022-11-20T16:32:44;16.60;;;10.97;;
13335;SDS011;6737;51.480;11.962;2022-11-20T16:35:09;17.43;;;10.87;;
13335;SDS011;6737;51.480;11.962;2022-11-20T16:37:35;17.37;;;10.60;;
13335;SDS011;6737;51.480;11.962;2022-11-20T16:40:01;15.00;;;8.90;;
13335;SDS011;6737;51.480;11.962;2022-11-20T16:42:26;14.23;;;9.47;;
13335;SDS011;6737;51.480;11.962;2022-11-20T16:44:52;17.07;;;9.47;;
13335;SDS011;6737;51.480;11.962;2022-11-20T16:47:18;15.10;;;8.67;;
13335;SDS011;6737;51.480;11.962;2022-11-20T16:49:44;14.67;;;9.07;;
13335;SDS011;6737;51.480;11.962;2022-11-20T16:52:09;15.00;;;9.30;;